Time;durP1;ratioP1;P1;durP2;ratioP2;P2;SDS_P1;SDS_P2;PMS_P1;PMS_P2;Temp;Humidity;BMP_temperature;BMP_pressure;BME280_temperature;BME280_humidity;BME280_pressure;Samples;Min_cycle;Max_cycle;Signal;HPM_P1;HPM_P2
2022/10/11 00:02:20;;;;;;;7.37;3.30;;;;;;;12.10;100.00;96752.56;5054136;28;20047;-76
2022/10/11 00:04:46;;;;;;;7.13;3.40;;;;;;;12.11;100.00;96748.97;5052095;28;20025;-75
2022/10/11 00:07:11;;;;;;;10.83;3.37;;;;;;;12.16;100.00;96751.13;5053644;28;20061;-75
2022/10/11 00:09:37;;;;;;;8.40;3.77;;;;;;;12.17;100.00;96752.78;5051404;28;20476;-75
2022/10/11 00:12:03;;;;;;;7.67;3.60;;;;;;;12.16;100.00;96756.41;5052511;28;20085;-75
2022/10/11 00:14:29;;;;;;;7.00;3.57;;;;;;;12.08;100.00;96761.66;5043251;28;20048;-76
2022/10/11 00:16:54;;;;;;;9.10;3.70;;;;;;;12.18;100.00;96760.56;5056668;28;20048;-75
2022/10/11 00:19:20;;;;;;;9.43;3.57;;;;;;;12.22;100.00;96758.44;5055016;28;20140;-75
2022/10/11 00:21:46;;;;;;;6.27;3.60;;;;;;;12.22;100.00;96751.34;5045005;28;20475;-75
2022/10/11 00:24:14;;;;;;;11.50;4.57;;;;;;;12.20;100.00;96755.09;5056105;28;20024;-76
2022/10/11 00:26:40;;;;;;;11.10;4.10;;;;;;;12.17;100.00;96748.34;5056662;28;20043;-75
2022/10/11 00:29:06;;;;;;;6.73;3.70;;;;;;;12.11;100.00;96748.97;5060303;28;20406;-75
2022/10/11 00:31:32;;;;;;;9.07;3.70;;;;;;;12.07;100.00;96747.63;5067227;28;20028;-76
2022/10/11 00:33:58;;;;;;;11.30;4.80;;;;;;;12.00;100.00;96747.44;5065308;28;20074;-75
2022/10/11 00:36:23;;;;;;;8.97;4.10;;;;;;;12.06;100.00;96745.97;5065933;28;20040;-75
2022/10/11 00:38:49;;;;;;;11.30;4.00;;;;;;;12.02;100.00;96748.09;5065309;28;20028;-76
2022/10/11 00:41:15;;;;;;;7.93;4.20;;;;;;;11.90;100.00;96751.13;5058989;28;20032;-75
2022/10/11 00:43:42;;;;;;;9.93;4.03;;;;;;;11.93;100.00;96750.81;5062773;28;20035;-75
2022/10/11 00:46:10;;;;;;;10.40;4.90;;;;;;;11.95;100.00;96757.59;5067585;28;20040;-75
2022/10/11 00:48:47;;;;;;;16.07;5.60;;;;;;;11.94;100.00;96750.69;5060408;28;20027;-76
2022/10/11 00:51:32;;;;;;;13.83;5.77;;;;;;;11.89;100.00;96752.94;5068224;28;20032;-76
2022/10/11 00:54:00;;;;;;;12.70;6.60;;;;;;;11.87;100.00;96749.66;5064220;28;20047;-75
2022/10/11 00:56:30;;;;;;;16.57;8.23;;;;;;;11.83;100.00;96753.53;5063914;28;20167;-75
2022/10/11 00:58:59;;;;;;;11.27;6.47;;;;;;;11.78;100.00;96758.44;5064336;28;20036;-76
2022/10/11 01:01:25;;;;;;;15.93;7.30;;;;;;;11.74;100.00;96759.75;5062549;28;20033;-75
2022/10/11 01:03:51;;;;;;;17.33;7.60;;;;;;;11.73;100.00;96760.69;5046981;28;20974;-75
2022/10/11 01:06:16;;;;;;;14.07;6.73;;;;;;;11.68;100.00;96755.09;5067455;28;20116;-75
2022/10/11 01:08:43;;;;;;;14.03;7.43;;;;;;;11.65;100.00;96758.03;5063944;28;20024;-75
2022/10/11 01:11:16;;;;;;;15.00;8.00;;;;;;;11.63;100.00;96760.78;5064316;28;20032;-76
2022/10/11 01:13:50;;;;;;;15.05;7.40;;;;;;;11.60;100.00;96755.00;5063062;28;20060;-75
2022/10/11 01:16:42;;;;;;;15.93;7.67;;;;;;;11.53;100.00;96760.06;5065229;28;20060;-76
2022/10/11 01:19:49;;;;;;;10.83;7.23;;;;;;;11.51;100.00;96762.03;5059067;28;20040;-75
2022/10/11 01:22:23;;;;;;;13.87;7.73;;;;;;;11.47;100.00;96766.78;5045503;28;20436;-76
2022/10/11 01:25:14;;;;;;;11.23;7.93;;;;;;;11.45;100.00;96757.38;5044346;28;20088;-75
2022/10/11 01:27:57;;;;;;;13.43;7.63;;;;;;;11.41;100.00;96754.22;5058655;28;20075;-75
2022/10/11 01:30:24;;;;;;;;;;;;;;;11.41;100.00;96754.22;5066244;28;20067;-75
2022/10/11 01:32:58;;;;;;;12.43;8.50;;;;;;;11.37;100.00;96754.63;5048779;28;19919;-75
2022/10/11 01:35:38;;;;;;;12.97;8.57;;;;;;;11.33;100.00;96749.72;5064167;28;20038;-75
2022/10/11 01:38:12;;;;;;;11.93;8.27;;;;;;;11.31;100.00;96761.34;5042753;28;20039;-75
2022/10/11 01:40:47;;;;;;;13.23;8.47;;;;;;;11.32;100.00;96752.47;5063856;28;20029;-75
2022/10/11 01:43:15;;;;;;;16.40;8.83;;;;;;;11.28;100.00;96759.03;5048876;28;20038;-76
2022/10/11 01:45:42;;;;;;;16.17;9.37;;;;;;;11.24;100.00;96755.03;5062019;28;20533;-75
2022/10/11 01:48:12;;;;;;;14.27;8.37;;;;;;;11.24;100.00;96757.69;5059499;28;20061;-75
2022/10/11 01:50:47;;;;;;;13.17;8.63;;;;;;;11.19;100.00;96765.19;5065905;28;20495;-75
2022/10/11 01:53:22;;;;;;;16.63;8.80;;;;;;;11.08;100.00;96769.69;5057757;28;20036;-75
2022/10/11 01:56:28;;;;;;;12.70;8.97;;;;;;;11.06;100.00;96771.63;5063949;28;21326;-75
2022/10/11 01:59:19;;;;;;;12.53;8.97;;;;;;;11.04;100.00;96770.97;5063998;28;20051;-75
2022/10/11 02:02:11;;;;;;;14.10;8.37;;;;;;;11.03;100.00;96771.09;5064762;28;20108;-75
2022/10/11 02:04:40;;;;;;;12.33;8.40;;;;;;;10.91;100.00;96765.25;5053820;28;21421;-75
2022/10/11 02:07:11;;;;;;;13.70;8.13;;;;;;;10.95;100.00;96776.28;5063440;28;20039;-75
2022/10/11 02:10:17;;;;;;;15.57;9.03;;;;;;;11.01;100.00;96776.53;5067723;28;20056;-75
2022/10/11 02:12:51;;;;;;;18.23;9.90;;;;;;;11.07;100.00;96775.94;5054109;28;20032;-75
2022/10/11 02:15:20;;;;;;;15.87;10.30;;;;;;;11.13;100.00;96778.94;5060672;28;20051;-75
2022/10/11 02:17:55;;;;;;;15.60;10.90;;;;;;;11.15;100.00;96777.00;5065501;28;20037;-75
2022/10/11 02:20:23;;;;;;;14.47;10.00;;;;;;;11.20;100.00;96780.00;5062198;28;20087;-75
2022/10/11 02:22:56;;;;;;;17.13;9.40;;;;;;;11.25;100.00;96788.28;5047944;28;20040;-75
2022/10/11 02:25:25;;;;;;;14.30;9.63;;;;;;;11.28;100.00;96790.63;5067990;28;20039;-75
2022/10/11 02:27:56;;;;;;;13.43;8.43;;;;;;;11.34;100.00;96795.28;5063821;28;20041;-75
2022/10/11 02:30:21;;;;;;;15.03;8.37;;;;;;;11.38;100.00;96787.91;5064086;28;20077;-75
2022/10/11 02:32:50;;;;;;;18.20;8.77;;;;;;;11.44;100.00;96793.41;5048831;28;20032;-75
2022/10/11 02:35:16;;;;;;;14.23;8.53;;;;;;;11.47;100.00;96787.03;5064620;28;20070;-75
2022/10/11 02:37:52;;;;;;;13.10;8.50;;;;;;;11.48;100.00;96797.38;5064550;28;20081;-75
2022/10/11 02:40:34;;;;;;;15.07;8.60;;;;;;;11.46;100.00;96798.50;5067262;28;20124;-75
2022/10/11 02:43:16;;;;;;;13.63;7.43;;;;;;;11.48;100.00;96805.28;5063497;28;20044;-75
2022/10/11 02:45:48;;;;;;;17.93;8.97;;;;;;;11.49;100.00;96790.31;5067254;28;20031;-75
2022/10/11 02:48:15;;;;;;;13.20;7.20;;;;;;;11.56;100.00;96799.25;5055730;28;20071;-75
2022/10/11 02:50:41;;;;;;;13.70;8.77;;;;;;;11.54;100.00;96796.78;5068471;28;20479;-76
2022/10/11 02:53:07;;;;;;;14.23;9.33;;;;;;;11.62;100.00;96798.66;5063737;28;20033;-75
2022/10/11 02:55:34;;;;;;;17.97;10.17;;;;;;;11.61;100.00;96797.00;5050995;28;20035;-75
2022/10/11 02:58:00;;;;;;;18.37;9.40;;;;;;;11.59;100.00;96796.31;5064819;28;21926;-76
2022/10/11 03:00:25;;;;;;;20.67;11.30;;;;;;;11.64;100.00;96806.44;5076456;28;20052;-75
2022/10/11 03:02:51;;;;;;;18.70;10.60;;;;;;;11.67;100.00;96803.47;5066459;28;20411;-75
2022/10/11 03:05:17;;;;;;;24.87;11.30;;;;;;;11.64;100.00;96806.44;5061210;28;20036;-75
2022/10/11 03:07:42;;;;;;;28.47;12.53;;;;;;;11.66;100.00;96807.91;5048164;28;20036;-75
2022/10/11 03:10:08;;;;;;;26.73;13.83;;;;;;;11.68;100.00;96805.13;5064637;28;20570;-75
2022/10/11 03:12:34;;;;;;;20.83;12.87;;;;;;;11.72;100.00;96807.31;5066058;28;20033;-76
2022/10/11 03:15:00;;;;;;;21.07;13.10;;;;;;;11.73;100.00;96810.75;5063866;28;20082;-75
2022/10/11 03:17:26;;;;;;;34.10;15.00;;;;;;;11.67;100.00;96808.72;5063687;28;20068;-75
2022/10/11 03:19:53;;;;;;;28.57;13.90;;;;;;;11.69;100.00;96815.50;5064631;28;20044;-75
2022/10/11 03:22:19;;;;;;;35.13;14.83;;;;;;;11.69;100.00;96814.69;5066465;28;20097;-75
2022/10/11 03:24:44;;;;;;;35.27;14.87;;;;;;;11.67;100.00;96820.13;5059070;28;20104;-76
2022/10/11 03:27:10;;;;;;;40.33;15.90;;;;;;;11.67;100.00;96824.53;5063740;28;20036;-76
2022/10/11 03:29:36;;;;;;;27.97;15.07;;;;;;;11.72;100.00;96822.28;5059438;28;20020;-75
2022/10/11 03:32:02;;;;;;;28.33;14.23;;;;;;;11.73;100.00;96823.94;5055569;28;20483;-75
2022/10/11 03:34:27;;;;;;;27.63;14.53;;;;;;;11.74;100.00;96815.06;5057295;28;20098;-75
2022/10/11 03:36:53;;;;;;;25.27;14.20;;;;;;;11.75;100.00;96820.19;5054900;28;20036;-76
2022/10/11 03:39:19;;;;;;;25.50;15.03;;;;;;;11.75;100.00;96822.00;5054350;28;20036;-75
2022/10/11 03:41:44;;;;;;;29.57;15.93;;;;;;;11.77;100.00;96820.03;5053349;28;20056;-75
2022/10/11 03:44:10;;;;;;;30.20;15.13;;;;;;;11.79;100.00;96818.06;5055924;28;20063;-75
2022/10/11 03:46:35;;;;;;;28.97;14.40;;;;;;;11.79;100.00;96823.34;5056689;28;20055;-75
2022/10/11 03:49:01;;;;;;;36.63;16.20;;;;;;;11.80;100.00;96824.97;5052654;28;20036;-75
2022/10/11 03:51:27;;;;;;;38.33;16.00;;;;;;;11.77;100.00;96825.31;5055319;28;20028;-75
2022/10/11 03:53:53;;;;;;;28.60;15.87;;;;;;;11.78;100.00;96821.69;5055441;28;20108;-75
2022/10/11 03:56:18;;;;;;;34.10;14.83;;;;;;;11.79;100.00;96836.50;5054728;28;20035;-75
2022/10/11 03:58:44;;;;;;;32.70;15.77;;;;;;;11.81;100.00;96842.47;5053196;28;20050;-76
2022/10/11 04:01:10;;;;;;;35.13;16.07;;;;;;;11.79;100.00;96836.50;5062076;28;20041;-75
2022/10/11 04:03:36;;;;;;;29.67;16.40;;;;;;;11.84;100.00;96834.28;5061469;28;20028;-75
2022/10/11 04:06:02;;;;;;;32.63;16.80;;;;;;;11.83;100.00;96837.84;5058568;28;20052;-75
2022/10/11 04:08:27;;;;;;;32.60;16.30;;;;;;;11.88;100.00;96846.19;5064169;28;20427;-75
2022/10/11 04:10:53;;;;;;;33.70;17.87;;;;;;;11.89;100.00;96845.19;5062513;28;20048;-75
2022/10/11 04:13:18;;;;;;;30.47;18.90;;;;;;;11.91;100.00;96842.41;5061117;28;20032;-76
2022/10/11 04:15:45;;;;;;;34.40;16.70;;;;;;;11.92;100.00;96844.88;5060692;28;20387;-75
2022/10/11 04:18:11;;;;;;;27.63;16.17;;;;;;;11.90;100.00;96846.84;5062759;28;20043;-75
2022/10/11 04:20:37;;;;;;;25.37;16.37;;;;;;;11.92;100.00;96850.16;5064526;28;20025;-75
2022/10/11 04:23:03;;;;;;;30.90;17.73;;;;;;;11.92;100.00;96859.88;5064572;28;20036;-75
2022/10/11 04:25:28;;;;;;;30.10;17.57;;;;;;;11.94;100.00;96857.94;5063723;28;20040;-75
2022/10/11 04:27:54;;;;;;;26.53;16.50;;;;;;;11.95;100.00;96862.22;5045614;28;20086;-75
2022/10/11 04:30:20;;;;;;;31.87;18.00;;;;;;;11.95;100.00;96862.22;5062042;28;20024;-75
2022/10/11 04:32:45;;;;;;;28.13;17.43;;;;;;;11.96;100.00;96864.69;5059334;28;20443;-75
2022/10/11 04:35:11;;;;;;;30.60;16.73;;;;;;;11.96;100.00;96866.50;5062552;28;20111;-75
2022/10/11 04:37:37;;;;;;;27.97;19.90;;;;;;;12.01;100.00;96864.25;5062786;28;20608;-75
2022/10/11 04:40:04;;;;;;;37.00;22.97;;;;;;;12.04;100.00;96871.84;5058197;28;20040;-75
2022/10/11 04:42:30;;;;;;;38.10;24.53;;;;;;;11.97;100.00;96868.13;5056815;28;20045;-75
2022/10/11 04:44:56;;;;;;;29.83;18.53;;;;;;;11.96;100.00;96869.13;5059671;28;20028;-76
2022/10/11 04:47:22;;;;;;;36.30;17.57;;;;;;;11.95;100.00;96870.94;5062527;28;20056;-76
2022/10/11 04:49:47;;;;;;;30.23;16.43;;;;;;;11.98;100.00;96868.00;5064131;28;20020;-75
2022/10/11 04:52:13;;;;;;;26.77;15.73;;;;;;;12.00;100.00;96866.06;5062461;28;20097;-75
2022/10/11 04:54:38;;;;;;;26.97;16.77;;;;;;;12.01;100.00;96872.16;5063218;28;20100;-75
2022/10/11 04:57:04;;;;;;;29.90;17.20;;;;;;;12.01;100.00;96875.63;5061727;28;20048;-75
2022/10/11 04:59:30;;;;;;;28.93;17.50;;;;;;;12.06;100.00;96876.97;5064913;28;20079;-76
2022/10/11 05:01:55;;;;;;;24.40;16.87;;;;;;;12.05;100.00;96877.94;5049339;28;20044;-75
2022/10/11 05:04:21;;;;;;;22.27;15.60;;;;;;;12.07;100.00;96873.34;5067763;28;20071;-75
2022/10/11 05:06:47;;;;;;;26.17;18.17;;;;;;;12.06;100.00;96874.31;5067043;28;20041;-76
2022/10/11 05:09:13;;;;;;;31.47;17.20;;;;;;;12.06;100.00;96874.31;5065777;28;20024;-75
2022/10/11 05:11:39;;;;;;;27.47;17.47;;;;;;;12.08;100.00;96878.47;5042367;28;20029;-76
2022/10/11 05:14:05;;;;;;;27.10;17.03;;;;;;;12.06;100.00;96879.59;5063316;28;20032;-76
2022/10/11 05:16:31;;;;;;;29.23;17.60;;;;;;;11.95;100.00;96889.41;5062506;28;20039;-75
2022/10/11 05:18:57;;;;;;;30.70;16.50;;;;;;;11.97;100.00;96887.44;5049383;28;20447;-75
2022/10/11 05:21:26;;;;;;;27.10;16.60;;;;;;;11.95;100.00;96886.75;5062414;28;20801;-76
2022/10/11 05:23:54;;;;;;;26.20;14.30;;;;;;;11.90;100.00;96883.72;5049020;28;20433;-76
2022/10/11 05:26:21;;;;;;;22.23;14.50;;;;;;;11.85;100.00;96893.91;5065779;28;20035;-75
2022/10/11 05:28:46;;;;;;;26.00;14.93;;;;;;;11.85;100.00;96893.09;5062878;28;20021;-75
2022/10/11 05:31:12;;;;;;;25.00;15.90;;;;;;;11.86;100.00;96895.56;5061194;28;20024;-75
2022/10/11 05:33:38;;;;;;;29.13;16.30;;;;;;;11.88;100.00;96895.44;5066008;28;20036;-76
2022/10/11 05:36:05;;;;;;;24.83;15.27;;;;;;;11.90;100.00;96894.28;5063710;28;20024;-76
2022/10/11 05:38:30;;;;;;;33.90;17.07;;;;;;;11.94;100.00;96895.66;5063565;28;20036;-76
2022/10/11 05:41:01;;;;;;;24.87;16.03;;;;;;;11.88;100.00;96893.63;5047758;28;20457;-76
2022/10/11 05:43:27;;;;;;;27.50;16.07;;;;;;;11.92;100.00;96908.16;5065232;28;20063;-76
2022/10/11 05:45:54;;;;;;;39.67;20.80;;;;;;;11.96;100.00;96906.03;5061555;28;20040;-76
2022/10/11 05:48:20;;;;;;;38.93;26.40;;;;;;;11.86;100.00;96914.00;5064925;28;21446;-76
2022/10/11 05:50:46;;;;;;;33.97;21.10;;;;;;;11.87;100.00;96909.56;5063844;28;20028;-76
2022/10/11 05:53:12;;;;;;;33.00;20.37;;;;;;;11.84;100.00;96916.00;5065360;28;20040;-76
2022/10/11 05:55:40;;;;;;;30.83;18.93;;;;;;;11.91;100.00;96917.03;5061555;28;20062;-77
2022/10/11 05:58:09;;;;;;;24.37;17.07;;;;;;;11.95;100.00;96918.38;5055117;28;20039;-76
2022/10/11 06:00:36;;;;;;;28.73;18.83;;;;;;;11.86;100.00;96926.38;5050015;28;20052;-76
2022/10/11 06:03:04;;;;;;;31.53;19.63;;;;;;;11.77;100.00;96928.09;5039707;28;20094;-77
2022/10/11 06:05:29;;;;;;;28.57;18.83;;;;;;;11.80;100.00;96930.38;5055346;28;20056;-77
2022/10/11 06:07:57;;;;;;;41.07;18.90;;;;;;;11.76;100.00;96929.03;5056961;28;20436;-76
2022/10/11 06:10:22;;;;;;;38.17;20.30;;;;;;;11.73;100.00;96939.88;5053119;28;20025;-76
2022/10/11 06:12:48;;;;;;;37.77;20.30;;;;;;;11.71;100.00;96936.56;5056612;28;20072;-76
2022/10/11 06:15:14;;;;;;;50.27;19.90;;;;;;;11.70;100.00;96941.03;5056611;28;20024;-76
2022/10/11 06:17:40;;;;;;;39.10;20.37;;;;;;;11.76;100.00;96936.94;5056669;28;20117;-76
2022/10/11 06:20:06;;;;;;;34.27;20.30;;;;;;;11.70;100.00;96932.25;5040172;28;20032;-76
2022/10/11 06:22:31;;;;;;;31.90;19.63;;;;;;;11.67;100.00;96941.31;5052622;28;20033;-76
2022/10/11 06:24:57;;;;;;;31.53;21.30;;;;;;;11.71;100.00;96944.47;5053771;28;20487;-76
2022/10/11 06:27:23;;;;;;;38.40;20.63;;;;;;;11.76;100.00;96944.84;5061825;28;21285;-76
2022/10/11 06:29:49;;;;;;;34.97;21.37;;;;;;;11.74;100.00;96949.47;5064839;28;20028;-76
2022/10/11 06:32:15;;;;;;;32.77;21.57;;;;;;;11.77;100.00;96946.53;5046707;28;20040;-76
2022/10/11 06:34:40;;;;;;;33.30;20.23;;;;;;;11.78;100.00;96948.19;5062847;28;20033;-76
2022/10/11 06:37:06;;;;;;;30.63;21.57;;;;;;;11.81;100.00;96953.16;5064610;28;20059;-76
2022/10/11 06:39:33;;;;;;;37.57;21.77;;;;;;;11.71;100.00;96952.38;5063912;28;20116;-76
2022/10/11 06:41:58;;;;;;;37.10;21.50;;;;;;;11.83;100.00;96961.72;5063602;28;20081;-76
2022/10/11 06:44:25;;;;;;;33.27;21.27;;;;;;;11.87;100.00;96957.88;5064905;28;20415;-76
2022/10/11 06:46:51;;;;;;;26.90;19.77;;;;;;;11.88;100.00;96964.78;5063538;28;20410;-76
2022/10/11 06:49:17;;;;;;;35.50;22.47;;;;;;;11.80;100.00;96967.28;5046871;28;20028;-77
2022/10/11 06:51:42;;;;;;;40.17;20.30;;;;;;;11.87;100.00;96963.13;5062540;28;20052;-76
2022/10/11 06:54:08;;;;;;;39.17;21.87;;;;;;;11.86;100.00;96972.00;5046002;28;20062;-76
2022/10/11 06:56:34;;;;;;;47.80;22.60;;;;;;;11.89;100.00;96971.69;5046002;28;20069;-76
2022/10/11 06:59:00;;;;;;;41.77;24.17;;;;;;;11.93;100.00;96978.31;5060682;28;20043;-77
2022/10/11 07:01:26;;;;;;;43.30;23.47;;;;;;;11.99;100.00;96971.63;5061012;28;20642;-76
2022/10/11 07:03:54;;;;;;;45.87;25.13;;;;;;;11.97;100.00;96979.72;5046388;28;20040;-76
2022/10/11 07:06:23;;;;;;;42.27;23.63;;;;;;;11.99;100.00;96982.19;5072880;28;20081;-76
2022/10/11 07:08:48;;;;;;;47.23;24.63;;;;;;;11.98;100.00;96975.25;5067574;28;20388;-76
2022/10/11 07:11:17;;;;;;;48.07;23.80;;;;;;;12.09;100.00;96979.47;5061668;28;20039;-77
2022/10/11 07:13:47;;;;;;;42.07;22.67;;;;;;;12.10;100.00;96983.75;5062077;28;20031;-77
2022/10/11 07:16:12;;;;;;;49.07;24.37;;;;;;;12.09;100.00;96987.38;5063010;28;20032;-76
2022/10/11 07:18:38;;;;;;;43.60;26.27;;;;;;;12.19;100.00;96988.13;5062540;28;20400;-76
2022/10/11 07:21:07;;;;;;;60.00;34.67;;;;;;;12.19;100.00;96990.78;5064429;28;20109;-76
2022/10/11 07:23:32;;;;;;;54.33;29.47;;;;;;;12.28;100.00;96997.78;5059267;28;20391;-76
2022/10/11 07:25:58;;;;;;;49.17;26.03;;;;;;;12.30;100.00;97000.25;5063133;28;20036;-76
2022/10/11 07:28:24;;;;;;;46.90;24.37;;;;;;;12.40;100.00;97004.47;5062287;28;20032;-76
2022/10/11 07:30:50;;;;;;;39.40;24.33;;;;;;;12.32;100.00;97003.59;5042701;28;20032;-76
2022/10/11 07:33:16;;;;;;;45.77;23.33;;;;;;;12.36;100.00;96999.66;5062781;28;20036;-76
2022/10/11 07:35:42;;;;;;;45.93;26.03;;;;;;;12.31;100.00;97001.91;5063275;28;20020;-76
2022/10/11 07:38:08;;;;;;;56.77;24.60;;;;;;;12.31;100.00;97009.81;5062587;28;20035;-76
2022/10/11 07:40:41;;;;;;;47.40;24.40;;;;;;;12.37;100.00;97006.59;5062566;28;20108;-76
2022/10/11 07:43:07;;;;;;;53.03;28.27;;;;;;;12.32;100.00;97011.50;5064700;28;20102;-77
2022/10/11 07:45:36;;;;;;;48.77;26.07;;;;;;;12.38;100.00;97010.91;5060652;28;20036;-76
2022/10/11 07:48:01;;;;;;;45.33;25.50;;;;;;;12.24;100.00;97014.91;5061477;28;20074;-76
2022/10/11 07:50:27;;;;;;;45.70;25.60;;;;;;;12.25;100.00;97008.63;5060386;28;20395;-76
2022/10/11 07:52:53;;;;;;;45.40;24.77;;;;;;;12.35;100.00;97014.66;5057180;28;20718;-76
2022/10/11 07:55:18;;;;;;;44.53;25.83;;;;;;;12.37;100.00;97012.69;5061522;28;20502;-77
2022/10/11 07:57:44;;;;;;;42.90;27.93;;;;;;;12.38;100.00;97011.72;5046399;28;20032;-77
2022/10/11 08:00:10;;;;;;;48.57;26.60;;;;;;;12.46;100.00;97013.59;5064310;28;20036;-76
2022/10/11 08:02:38;;;;;;;47.47;28.30;;;;;;;12.45;100.00;97015.41;5059094;28;20044;-76
2022/10/11 08:05:04;;;;;;;50.77;27.13;;;;;;;12.53;100.00;97012.00;5048561;28;20043;-76
2022/10/11 08:07:30;;;;;;;45.13;26.77;;;;;;;12.65;100.00;97017.88;5064270;28;20040;-76
2022/10/11 08:09:56;;;;;;;48.60;27.57;;;;;;;12.68;100.00;97013.13;5064835;28;20029;-76
2022/10/11 08:12:22;;;;;;;75.83;49.97;;;;;;;12.66;100.00;97014.25;5065818;28;20024;-77
2022/10/11 08:14:48;;;;;;;47.17;31.27;;;;;;;12.77;100.00;97016.66;5062863;28;20036;-76
2022/10/11 08:17:13;;;;;;;41.17;25.63;;;;;;;12.71;100.00;97015.47;5056172;28;20024;-76
2022/10/11 08:19:39;;;;;;;45.83;26.05;;;;;;;12.83;100.00;97016.03;5064666;28;20119;-76
2022/10/11 08:22:05;;;;;;;38.63;24.47;;;;;;;12.95;100.00;97012.16;5064352;28;20397;-76
2022/10/11 08:24:31;;;;;;;38.90;23.43;;;;;;;12.96;100.00;97011.19;5060426;28;20043;-76
2022/10/11 08:26:57;;;;;;;35.73;21.30;;;;;;;13.03;100.00;97013.19;5045071;28;20446;-76
2022/10/11 08:29:23;;;;;;;37.03;21.53;;;;;;;13.31;100.00;97011.25;5064359;28;20068;-76
2022/10/11 08:31:49;;;;;;;34.50;22.17;;;;;;;13.50;100.00;97008.38;5052115;28;20118;-76
2022/10/11 08:34:15;;;;;;;31.23;20.00;;;;;;;13.67;100.00;97007.44;5066046;28;20041;-76
2022/10/11 08:36:41;;;;;;;31.27;20.27;;;;;;;13.70;100.00;97008.13;5067790;28;20041;-76
2022/10/11 08:39:07;;;;;;;31.30;20.17;;;;;;;13.68;100.00;97009.13;5043693;28;20048;-76
2022/10/11 08:41:48;;;;;;;27.40;19.45;;;;;;;13.61;100.00;97007.25;5070111;28;20127;-76
2022/10/11 08:44:26;;;;;;;29.13;19.17;;;;;;;13.61;100.00;97008.06;5062247;28;20032;-76
2022/10/11 08:46:59;;;;;;;34.07;21.47;;;;;;;13.83;100.00;97006.69;5066276;28;20052;-76
2022/10/11 08:49:30;;;;;;;35.95;21.55;;;;;;;13.94;100.00;97004.72;5059773;28;20028;-76
2022/10/11 08:52:01;;;;;;;33.42;21.92;;;;;;;14.17;100.00;96997.84;5067776;28;20032;-76
2022/10/11 08:54:36;;;;;;;35.05;21.30;;;;;;;14.14;100.00;96998.16;5068627;28;20859;-76
2022/10/11 08:57:05;;;;;;;35.08;21.75;;;;;;;14.22;100.00;96998.19;5063114;28;20504;-77
2022/10/11 08:59:54;;;;;;;42.42;22.17;;;;;;;13.97;100.00;97001.75;5054869;28;20051;-76
2022/10/11 09:02:24;;;;;;;33.47;20.85;;;;;;;13.96;100.00;97000.13;5061278;28;20044;-76
2022/10/11 09:04:52;;;;;;;38.08;21.10;;;;;;;14.09;100.00;97005.78;5066693;28;20476;-76
2022/10/11 09:07:42;;;;;;;37.35;23.15;;;;;;;14.06;100.00;97006.09;5067762;28;20085;-76
2022/10/11 09:10:39;;;;;;;38.03;20.67;;;;;;;13.94;100.00;97004.72;5061360;28;20039;-76
2022/10/11 09:13:30;;;;;;;33.17;20.90;;;;;;;14.11;100.00;96998.47;5060406;28;20387;-76
2022/10/11 09:16:25;;;;;;;43.33;27.52;;;;;;;14.16;100.00;97001.47;5059184;28;20033;-76
2022/10/11 09:18:57;;;;;;;32.92;21.10;;;;;;;14.11;100.00;97001.94;5067279;28;20040;-76
2022/10/11 09:21:46;;;;;;;33.72;20.40;;;;;;;14.10;100.00;97002.94;5068722;28;20040;-75
2022/10/11 09:24:21;;;;;;;37.70;22.13;;;;;;;14.09;100.00;97000.47;5044338;28;20024;-76
2022/10/11 09:26:55;;;;;;;32.92;20.17;;;;;;;14.13;100.00;96996.50;5070735;28;20081;-76
2022/10/11 09:29:31;;;;;;;36.10;22.20;;;;;;;14.22;100.00;96999.97;5068393;28;20820;-77
2022/10/11 09:31:57;;;;;;;37.33;19.90;;;;;;;14.18;100.00;96991.53;5066604;28;20111;-76
2022/10/11 09:34:31;;;;;;;35.60;20.45;;;;;;;14.57;100.00;96998.91;5067683;28;20028;-76
2022/10/11 09:37:36;;;;;;;29.85;18.20;;;;;;;14.23;100.00;96991.91;5072239;28;20031;-77
2022/10/11 09:40:17;;;;;;;30.20;17.77;;;;;;;14.29;100.00;96987.78;5060029;28;20040;-77
2022/10/11 09:42:42;;;;;;;37.35;18.45;;;;;;;14.04;100.00;96992.19;5069090;28;20084;-76
2022/10/11 09:45:18;;;;;;;33.63;16.67;;;;;;;14.10;100.00;96999.47;5058583;28;20025;-77
2022/10/11 09:47:44;;;;;;;43.10;19.88;;;;;;;14.05;100.00;97005.25;5066658;28;20032;-76
2022/10/11 09:50:19;;;;;;;29.15;18.42;;;;;;;14.07;100.00;97007.75;5068328;28;20143;-79
2022/10/11 09:52:54;;;;;;;35.72;18.75;;;;;;;14.09;100.00;97005.78;5068350;28;20407;-76
2022/10/11 09:56:02;;;;;;;46.85;24.25;;;;;;;13.86;100.00;97009.00;5068990;28;20021;-76
2022/10/11 09:58:29;;;;;;;46.00;22.40;;;;;;;13.90;100.00;97010.34;4987801;28;20045;-77
2022/10/11 10:01:08;;;;;;;46.80;25.90;;;;;;;14.14;100.00;97006.09;4976177;28;20025;-76
2022/10/11 10:03:40;;;;;;;35.28;22.00;;;;;;;13.97;100.00;97002.59;5032657;28;20090;-76
2022/10/11 10:06:15;;;;;;;39.80;22.30;;;;;;;13.87;100.00;97013.28;5068228;28;20041;-77
2022/10/11 10:08:42;;;;;;;32.80;19.50;;;;;;;14.03;100.00;97006.41;5067911;28;20060;-77
2022/10/11 10:11:09;;;;;;;30.83;17.83;;;;;;;13.94;100.00;97002.09;5067986;28;20024;-77
2022/10/11 10:13:52;;;;;;;28.50;16.02;;;;;;;13.93;100.00;97003.91;5068089;28;20025;-77
2022/10/11 10:16:25;;;;;;;28.83;15.68;;;;;;;14.10;100.00;97002.13;5056834;28;20029;-77
2022/10/11 10:19:03;;;;;;;28.00;15.95;;;;;;;14.11;100.00;97001.94;5064388;28;20044;-77
2022/10/11 10:21:36;;;;;;;27.27;13.90;;;;;;;14.41;100.00;96998.84;5059553;28;20058;-77
2022/10/11 10:24:08;;;;;;;27.17;14.98;;;;;;;14.31;100.00;96999.84;5042296;28;20032;-77
2022/10/11 10:26:34;;;;;;;25.80;13.98;;;;;;;14.48;100.00;97005.97;5062531;28;20487;-76
2022/10/11 10:29:08;;;;;;;25.33;12.73;;;;;;;14.35;100.00;97001.19;5067134;28;20043;-76
2022/10/11 10:31:35;;;;;;;24.92;14.77;;;;;;;14.39;100.00;97009.63;5068865;28;20063;-76
2022/10/11 10:34:07;;;;;;;35.70;17.25;;;;;;;14.36;100.00;97002.81;5055138;28;20024;-77
2022/10/11 10:36:37;;;;;;;28.25;14.85;;;;;;;14.38;100.00;97000.84;5062070;28;20037;-77
2022/10/11 10:39:16;;;;;;;27.67;16.48;;;;;;;14.67;100.00;96998.72;5062333;28;20025;-77
2022/10/11 10:41:42;;;;;;;24.08;15.80;;;;;;;14.89;100.00;96991.91;5054837;28;20028;-77
2022/10/11 10:44:09;;;;;;;32.00;16.27;;;;;;;15.51;100.00;96982.31;5067795;28;20063;-76
2022/10/11 10:46:43;;;;;;;23.00;14.00;;;;;;;15.89;100.00;96973.72;5066989;28;20028;-77
2022/10/11 10:49:34;;;;;;;25.42;14.70;;;;;;;15.63;100.00;96977.47;5054240;28;20097;-76
2022/10/11 10:52:17;;;;;;;22.15;12.57;;;;;;;15.29;100.00;96981.25;5060020;28;20071;-77
2022/10/11 10:55:15;;;;;;;16.30;10.10;;;;;;;15.08;100.00;96987.09;5066985;28;20039;-77
2022/10/11 10:58:20;;;;;;;24.48;11.02;;;;;;;14.97;100.00;96983.97;5052893;28;20861;-77
2022/10/11 11:00:49;;;;;;;19.95;9.85;;;;;;;15.27;100.00;96982.41;5058893;28;20045;-77
2022/10/11 11:03:23;;;;;;;20.88;10.98;;;;;;;15.08;100.00;96986.25;5066528;28;20102;-77
2022/10/11 11:05:57;;;;;;;23.98;12.35;;;;;;;15.01;100.00;96988.75;5067813;28;20697;-77
2022/10/11 11:09:01;;;;;;;16.08;11.45;;;;;;;14.87;100.00;96986.81;5050731;28;20029;-77
2022/10/11 11:11:48;;;;;;;23.55;11.10;;;;;;;15.19;100.00;96985.91;5061566;28;20508;-77
2022/10/11 11:14:22;;;;;;;19.30;9.77;;;;;;;14.97;100.00;96984.78;5051391;28;20109;-80
2022/10/11 11:17:09;;;;;;;15.80;10.82;;;;;;;14.88;100.00;96984.97;5066033;28;20043;-77
2022/10/11 11:19:55;;;;;;;16.92;9.98;;;;;;;15.02;100.00;96984.28;5066061;28;20055;-77
2022/10/11 11:22:39;;;;;;;17.98;10.80;;;;;;;14.97;100.00;96986.63;5058046;28;20064;-78
2022/10/11 11:25:35;;;;;;;20.23;10.25;;;;;;;15.06;100.00;96982.97;5061765;28;20143;-77
2022/10/11 11:28:38;;;;;;;16.48;9.68;;;;;;;15.07;100.00;96974.84;5040025;28;20085;-77